createdAt,value
2019-02-17T00:00:32.309Z,91.48
2019-02-17T00:03:01.035Z,91.18
2019-02-17T00:05:29.737Z,91.37
2019-02-17T00:07:58.303Z,91.78
2019-02-17T00:10:27.159Z,91.47
2019-02-17T00:12:55.851Z,91.28
2019-02-17T00:15:24.472Z,91.54
2019-02-17T00:17:53.447Z,90.90
2019-02-17T00:20:22.098Z,90.86
2019-02-17T00:22:50.680Z,91.53
2019-02-17T00:25:20.537Z,91.37
2019-02-17T00:27:49.955Z,91.88
2019-02-17T00:30:18.610Z,92.14
2019-02-17T00:32:47.274Z,92.67
2019-02-17T00:35:15.961Z,92.56
2019-02-17T00:37:44.508Z,92.32
2019-02-17T00:40:13.253Z,92.39
2019-02-17T00:42:42.011Z,92.39
2019-02-17T00:45:10.899Z,92.17
2019-02-17T00:47:39.615Z,92.33
2019-02-17T00:50:10.455Z,92.83
2019-02-17T00:52:39.146Z,92.55
2019-02-17T00:55:08.303Z,92.02
2019-02-17T00:57:36.918Z,91.91
2019-02-17T01:00:08.600Z,91.86
2019-02-17T01:02:37.308Z,92.18
2019-02-17T01:05:07.329Z,92.29
2019-02-17T01:07:36.039Z,92.68
2019-02-17T01:10:07.525Z,92.96
2019-02-17T01:12:36.379Z,92.87
2019-02-17T01:15:08.639Z,92.84
2019-02-17T01:17:37.316Z,92.56
2019-02-17T01:20:08.590Z,91.95
2019-02-17T01:22:37.365Z,90.94
2019-02-17T01:25:08.845Z,91.44
2019-02-17T01:27:37.525Z,91.14
2019-02-17T01:30:09.308Z,91.83
2019-02-17T01:32:37.928Z,92.09
2019-02-17T01:35:06.663Z,91.87
2019-02-17T01:37:35.326Z,91.52
2019-02-17T01:40:07.892Z,91.74
2019-02-17T01:42:36.756Z,91.72
2019-02-17T01:45:08.737Z,92.17
2019-02-17T01:47:37.424Z,91.97
2019-02-17T01:50:08.276Z,91.99
2019-02-17T01:52:36.968Z,92.01
2019-02-17T01:55:08.059Z,91.87
2019-02-17T01:57:36.670Z,92.22
2019-02-17T02:00:10.919Z,92.58
2019-02-17T02:02:39.594Z,92.57
2019-02-17T02:05:08.289Z,92.49
2019-02-17T02:07:36.959Z,93.41
2019-02-17T02:10:08.999Z,93.41
2019-02-17T02:12:37.774Z,93.29
2019-02-17T02:15:11.964Z,93.17
2019-02-17T02:17:40.736Z,93.09
2019-02-17T02:20:11.690Z,93.09
2019-02-17T02:22:40.243Z,93.34
2019-02-17T02:25:10.064Z,93.16
2019-02-17T02:27:38.761Z,92.74
2019-02-17T02:30:10.351Z,93.20
2019-02-17T02:32:39.101Z,93.45
2019-02-17T02:35:08.211Z,93.43
2019-02-17T02:37:36.909Z,93.40
2019-02-17T02:40:07.318Z,93.16
2019-02-17T02:42:36.100Z,93.10
2019-02-17T02:45:08.239Z,92.76
2019-02-17T02:47:36.869Z,92.86
2019-02-17T02:50:11.346Z,93.01
2019-02-17T02:52:40.038Z,92.88
2019-02-17T02:55:10.039Z,93.17
2019-02-17T02:57:38.693Z,93.58
2019-02-17T03:00:10.455Z,93.84
2019-02-17T03:02:39.174Z,93.94
2019-02-17T03:05:28.487Z,93.95
2019-02-17T03:07:57.169Z,93.68
2019-02-17T03:10:25.854Z,93.44
2019-02-17T03:12:54.398Z,93.53
2019-02-17T03:15:23.117Z,93.47
2019-02-17T03:17:51.848Z,93.24
2019-02-17T03:20:20.540Z,93.43
2019-02-17T03:22:49.178Z,93.31
2019-02-17T03:25:17.815Z,93.53
2019-02-17T03:27:46.467Z,93.76
2019-02-17T03:30:15.178Z,93.91
2019-02-17T03:32:43.925Z,93.88
2019-02-17T03:35:12.661Z,93.55
2019-02-17T03:37:41.400Z,94.25
2019-02-17T03:40:10.301Z,94.58
2019-02-17T03:42:38.926Z,94.75
2019-02-17T03:45:10.491Z,94.75
2019-02-17T03:47:39.250Z,94.66
2019-02-17T03:50:09.380Z,94.46
2019-02-17T03:52:38.059Z,94.34
2019-02-17T03:55:06.778Z,94.07
2019-02-17T03:57:35.530Z,94.44
2019-02-17T04:00:16.373Z,94.79
2019-02-17T04:02:37.851Z,94.96
2019-02-17T04:05:07.358Z,94.96
2019-02-17T04:07:36.035Z,95.65
2019-02-17T04:10:05.884Z,96.61
2019-02-17T04:12:34.568Z,97.18
2019-02-17T04:15:03.358Z,97.38
2019-02-17T04:17:32.078Z,97.29
2019-02-17T04:20:00.696Z,97.05
2019-02-17T04:22:29.432Z,96.90
2019-02-17T04:24:58.365Z,96.97
2019-02-17T04:27:27.072Z,96.58
2019-02-17T04:29:55.775Z,96.00
2019-02-17T04:32:24.510Z,96.01
2019-02-17T04:34:53.238Z,96.01
2019-02-17T04:37:21.934Z,96.33
2019-02-17T04:39:50.667Z,96.49
2019-02-17T04:42:19.372Z,96.57
2019-02-17T04:44:48.016Z,96.57
2019-02-17T04:47:16.675Z,96.43
2019-02-17T04:49:45.280Z,96.30
2019-02-17T04:52:14.047Z,96.25
2019-02-17T04:54:42.706Z,96.22
2019-02-17T04:57:11.486Z,96.04
2019-02-17T04:59:40.162Z,95.80
2019-02-17T05:02:08.892Z,95.95
2019-02-17T05:04:37.530Z,95.91
2019-02-17T05:07:06.438Z,95.85
2019-02-17T05:09:35.070Z,96.05
2019-02-17T05:12:03.744Z,96.06
2019-02-17T05:14:32.508Z,96.16
2019-02-17T05:17:01.220Z,96.20
2019-02-17T05:19:29.881Z,96.02
2019-02-17T05:21:58.502Z,96.18
2019-02-17T05:24:27.242Z,96.48
2019-02-17T05:26:55.980Z,96.84
2019-02-17T05:29:24.639Z,97.01
2019-02-17T05:31:53.279Z,96.96
2019-02-17T05:34:21.970Z,96.83
2019-02-17T05:36:50.672Z,96.73
2019-02-17T05:39:19.411Z,96.68
2019-02-17T05:41:48.137Z,96.35
2019-02-17T05:44:16.689Z,96.01
2019-02-17T05:46:45.371Z,96.25
2019-02-17T05:49:13.988Z,96.71
2019-02-17T05:51:42.559Z,97.07
2019-02-17T05:54:11.263Z,97.23
2019-02-17T05:56:39.925Z,97.15
2019-02-17T05:59:08.659Z,97.18
2019-02-17T06:01:37.360Z,97.47
2019-02-17T06:04:06.578Z,97.53
2019-02-17T06:06:35.224Z,97.41
2019-02-17T06:09:04.972Z,97.23
2019-02-17T06:11:33.627Z,97.15
2019-02-17T06:14:02.448Z,97.10
2019-02-17T06:16:31.204Z,97.04
2019-02-17T06:18:59.941Z,97.18
2019-02-17T06:21:28.598Z,97.23
2019-02-17T06:23:57.199Z,97.56
2019-02-17T06:26:25.767Z,97.98
2019-02-17T06:28:54.567Z,98.20
2019-02-17T06:31:23.284Z,98.07
2019-02-17T06:33:52.251Z,97.91
2019-02-17T06:36:21.305Z,97.75
2019-02-17T06:38:50.024Z,97.95
2019-02-17T06:41:18.684Z,98.17
2019-02-17T06:43:47.374Z,98.13
2019-02-17T06:46:17.708Z,98.00
2019-02-17T06:48:46.339Z,97.83
2019-02-17T06:51:15.020Z,97.65
2019-02-17T06:53:43.749Z,97.49
2019-02-17T06:56:14.086Z,97.36
2019-02-17T06:58:42.768Z,97.16
2019-02-17T07:01:11.461Z,97.03
2019-02-17T07:03:40.062Z,96.93
2019-02-17T07:06:10.422Z,96.76
2019-02-17T07:08:39.368Z,96.62
2019-02-17T07:11:08.116Z,96.78
2019-02-17T07:13:36.819Z,96.89
2019-02-17T07:16:05.661Z,96.71
2019-02-17T07:18:34.317Z,96.67
2019-02-17T07:21:03.896Z,96.54
2019-02-17T07:23:32.730Z,96.24
2019-02-17T07:26:01.479Z,95.93
2019-02-17T07:28:30.156Z,95.15
2019-02-17T07:30:59.556Z,94.77
2019-02-17T07:33:29.141Z,94.70
2019-02-17T07:35:58.109Z,94.36
2019-02-17T07:38:26.650Z,94.31
2019-02-17T07:40:55.424Z,94.31
2019-02-17T07:43:24.671Z,93.81
2019-02-17T07:45:56.509Z,93.19
2019-02-17T07:48:25.441Z,91.46
2019-02-17T07:51:06.543Z,91.63
2019-02-17T07:53:36.177Z,89.52
2019-02-17T07:56:05.020Z,88.29
2019-02-17T07:58:33.843Z,88.07
2019-02-17T08:01:04.483Z,86.80
2019-02-17T08:03:33.283Z,86.81
2019-02-17T08:06:02.184Z,83.56
2019-02-17T08:08:30.870Z,83.74
2019-02-17T08:11:03.939Z,81.89
2019-02-17T08:13:30.014Z,78.90
2019-02-17T08:15:58.891Z,77.83
2019-02-17T08:18:29.406Z,76.76
2019-02-17T08:20:58.359Z,76.31
2019-02-17T08:23:26.994Z,76.58
2019-02-17T08:25:55.647Z,76.58
2019-02-17T08:28:24.393Z,75.98
2019-02-17T08:30:57.300Z,74.84
2019-02-17T08:33:26.039Z,73.05
2019-02-17T08:35:54.703Z,73.39
2019-02-17T08:38:23.445Z,72.78
2019-02-17T08:40:52.099Z,72.73
2019-02-17T08:43:21.169Z,72.54
2019-02-17T08:45:50.019Z,72.52
2019-02-17T08:48:18.822Z,72.62
2019-02-17T08:50:48.017Z,72.44
2019-02-17T08:53:17.073Z,71.93
2019-02-17T08:55:46.091Z,71.18
2019-02-17T08:58:14.820Z,70.24
2019-02-17T09:00:43.644Z,72.03
2019-02-17T09:03:12.490Z,71.30
2019-02-17T09:05:44.198Z,72.01
2019-02-17T09:08:12.084Z,70.49
2019-02-17T09:10:41.115Z,68.01
2019-02-17T09:13:10.011Z,68.92
2019-02-17T09:15:38.703Z,65.77
2019-02-17T09:18:07.419Z,65.80
2019-02-17T09:20:37.370Z,67.45
2019-02-17T09:23:06.498Z,68.01
2019-02-17T09:25:35.155Z,67.22
2019-02-17T09:28:03.974Z,65.52
2019-02-17T09:30:33.586Z,65.03
2019-02-17T09:33:02.320Z,67.59
2019-02-17T09:35:32.789Z,64.58
2019-02-17T09:38:01.697Z,64.13
2019-02-17T09:40:31.633Z,63.46
2019-02-17T09:43:01.371Z,59.92
2019-02-17T09:45:31.752Z,62.73
2019-02-17T09:48:00.455Z,61.52
2019-02-17T09:50:29.180Z,61.03
2019-02-17T09:52:57.907Z,60.56
2019-02-17T09:55:26.681Z,61.32
2019-02-17T09:57:55.352Z,60.24
2019-02-17T10:00:24.057Z,60.99
2019-02-17T10:02:52.705Z,59.42
2019-02-17T10:05:21.468Z,59.19
2019-02-17T10:07:51.278Z,58.84
2019-02-17T10:10:21.251Z,57.90
2019-02-17T10:12:50.003Z,58.47
2019-02-17T10:15:18.722Z,58.43
2019-02-17T10:17:47.470Z,58.43
2019-02-17T10:20:17.280Z,58.67
2019-02-17T10:22:45.973Z,58.15
2019-02-17T10:25:14.713Z,58.88
2019-02-17T10:27:43.419Z,55.19
2019-02-17T10:30:14.897Z,57.49
2019-02-17T10:32:43.655Z,55.33
2019-02-17T10:35:12.395Z,54.44
2019-02-17T10:37:41.078Z,54.28
2019-02-17T10:40:12.707Z,54.76
2019-02-17T10:42:41.937Z,54.04
2019-02-17T10:45:12.587Z,54.27
2019-02-17T10:47:41.414Z,54.61
2019-02-17T10:50:12.776Z,53.92
2019-02-17T10:52:49.820Z,52.61
2019-02-17T10:55:18.663Z,52.92
2019-02-17T10:57:47.312Z,51.93
2019-02-17T11:00:20.226Z,53.77
2019-02-17T11:02:49.880Z,53.08
2019-02-17T11:05:18.516Z,54.33
2019-02-17T11:07:47.280Z,53.03
2019-02-17T11:10:15.926Z,53.39
2019-02-17T11:12:44.666Z,55.61
2019-02-17T11:15:19.028Z,53.19
2019-02-17T11:17:59.365Z,52.47
2019-02-17T11:20:28.126Z,53.59
2019-02-17T11:22:56.958Z,51.22
2019-02-17T11:25:27.936Z,51.90
2019-02-17T11:27:57.350Z,52.82
2019-02-17T11:30:25.979Z,51.18
2019-02-17T11:32:58.509Z,50.83
2019-02-17T11:35:29.666Z,50.34
2019-02-17T11:37:57.797Z,51.23
2019-02-17T11:40:26.537Z,50.26
2019-02-17T11:42:55.379Z,50.46
2019-02-17T11:45:24.172Z,49.95
2019-02-17T11:47:53.665Z,51.18
2019-02-17T11:50:30.924Z,50.52
2019-02-17T11:52:59.669Z,50.97
2019-02-17T11:55:28.305Z,51.25
2019-02-17T11:57:57.131Z,52.25
2019-02-17T12:00:26.057Z,52.71
2019-02-17T12:02:54.778Z,51.98
2019-02-17T12:05:23.545Z,49.70
2019-02-17T12:07:52.434Z,50.57
2019-02-17T12:10:21.074Z,51.43
2019-02-17T12:12:49.820Z,51.47
2019-02-17T12:15:18.512Z,50.98
2019-02-17T12:17:47.173Z,49.21
2019-02-17T12:20:38.247Z,50.57
2019-02-17T12:23:09.786Z,49.45
2019-02-17T12:25:43.121Z,48.89
2019-02-17T12:28:13.434Z,49.69
2019-02-17T12:30:43.883Z,48.33
2019-02-17T12:33:19.224Z,52.15
2019-02-17T12:35:43.028Z,49.77
2019-02-17T12:38:11.854Z,49.51
2019-02-17T12:40:40.521Z,48.58
2019-02-17T12:43:09.226Z,51.49
2019-02-17T12:45:38.003Z,50.77
2019-02-17T12:48:06.762Z,49.05
2019-02-17T12:50:35.464Z,49.68
2019-02-17T12:53:04.900Z,48.61
2019-02-17T12:55:33.621Z,48.67
2019-02-17T12:58:02.962Z,48.39
2019-02-17T13:00:31.717Z,48.09
2019-02-17T13:03:00.424Z,48.20
2019-02-17T13:05:29.341Z,47.75
2019-02-17T13:07:58.136Z,49.28
2019-02-17T13:10:26.892Z,50.07
2019-02-17T13:12:55.746Z,48.57
2019-02-17T13:15:24.833Z,47.98
2019-02-17T13:17:53.559Z,48.58
2019-02-17T13:20:22.543Z,50.21
2019-02-17T13:22:51.114Z,47.79
2019-02-17T13:25:19.898Z,47.27
2019-02-17T13:27:49.033Z,48.15
2019-02-17T13:30:28.308Z,48.44
2019-02-17T13:32:57.136Z,47.66
2019-02-17T13:35:27.065Z,45.63
2019-02-17T13:37:55.620Z,44.87
2019-02-17T13:40:24.378Z,46.43
2019-02-17T13:42:53.188Z,44.79
2019-02-17T13:45:22.013Z,45.03
2019-02-17T13:47:50.948Z,43.74
2019-02-17T13:50:20.044Z,45.02
2019-02-17T13:52:48.642Z,44.75
2019-02-17T13:55:17.568Z,44.78
2019-02-17T13:57:46.664Z,45.49
2019-02-17T14:00:19.319Z,44.50
2019-02-17T14:02:48.086Z,43.84
2019-02-17T14:05:16.817Z,44.12
2019-02-17T14:07:45.457Z,43.79
2019-02-17T14:10:19.429Z,44.07
2019-02-17T14:12:48.273Z,42.59
2019-02-17T14:15:21.732Z,44.58
2019-02-17T14:17:50.461Z,43.24
2019-02-17T14:20:19.921Z,42.48
2019-02-17T14:22:48.702Z,42.94
2019-02-17T14:25:17.722Z,41.90
2019-02-17T14:27:46.539Z,42.67
2019-02-17T14:30:17.631Z,42.02
2019-02-17T14:32:46.282Z,42.68
2019-02-17T14:35:20.733Z,42.91
2019-02-17T14:37:49.539Z,42.49
2019-02-17T14:40:18.088Z,43.43
2019-02-17T14:42:46.839Z,43.21
2019-02-17T14:45:29.308Z,42.64
2019-02-17T14:48:11.522Z,44.20
2019-02-17T14:50:56.742Z,43.78
2019-02-17T14:53:39.627Z,47.04
2019-02-17T14:56:24.645Z,43.01
2019-02-17T14:59:08.836Z,44.54
2019-02-17T15:01:53.844Z,44.42
2019-02-17T15:04:38.127Z,44.50
2019-02-17T15:07:26.687Z,43.64
2019-02-17T15:10:10.563Z,43.92
2019-02-17T15:12:56.349Z,43.67
2019-02-17T15:15:44.972Z,44.19
2019-02-17T15:18:30.724Z,43.53
2019-02-17T15:21:23.698Z,44.76
2019-02-17T15:24:08.141Z,45.02
2019-02-17T15:26:52.857Z,44.34
2019-02-17T15:29:37.800Z,42.51
2019-02-17T15:32:19.963Z,44.67
2019-02-17T15:35:11.230Z,43.18
2019-02-17T15:37:54.261Z,44.25
2019-02-17T15:40:40.963Z,44.40
2019-02-17T15:43:24.290Z,45.96
2019-02-17T15:46:09.230Z,45.75
2019-02-17T15:48:52.765Z,47.30
2019-02-17T15:51:27.006Z,49.13
2019-02-17T15:54:02.338Z,47.14
2019-02-17T15:56:31.069Z,46.77
2019-02-17T15:59:06.122Z,47.55
2019-02-17T16:01:34.911Z,47.16
2019-02-17T16:04:08.425Z,47.85
2019-02-17T16:06:37.240Z,49.83
2019-02-17T16:09:07.535Z,50.03
2019-02-17T16:11:36.803Z,50.65
2019-02-17T16:14:05.643Z,52.06
2019-02-17T16:16:34.354Z,50.07
2019-02-17T16:19:03.168Z,51.35
2019-02-17T16:21:31.885Z,50.43
2019-02-17T16:24:00.620Z,49.22
2019-02-17T16:26:29.331Z,49.75
2019-02-17T16:28:58.015Z,49.30
2019-02-17T16:31:26.668Z,50.59
2019-02-17T16:33:55.970Z,50.66
2019-02-17T16:36:24.793Z,49.21
2019-02-17T16:38:53.513Z,50.35
2019-02-17T16:41:22.254Z,49.76
2019-02-17T16:43:51.038Z,49.74
2019-02-17T16:46:19.743Z,50.50
2019-02-17T16:48:48.496Z,50.45
2019-02-17T16:51:17.254Z,53.09
2019-02-17T16:53:46.096Z,53.28
2019-02-17T16:56:14.810Z,54.37
2019-02-17T16:58:43.446Z,55.15
2019-02-17T17:01:12.257Z,56.64
2019-02-17T17:03:41.284Z,58.24
2019-02-17T17:06:10.122Z,58.76
2019-02-17T17:08:39.115Z,59.88
2019-02-17T17:11:07.881Z,59.54
2019-02-17T17:13:36.638Z,59.74
2019-02-17T17:16:05.321Z,60.14
2019-02-17T17:18:34.016Z,60.82
2019-02-17T17:21:03.544Z,61.23
2019-02-17T17:23:32.307Z,61.71
2019-02-17T17:26:01.045Z,61.75
2019-02-17T17:28:29.750Z,61.91
2019-02-17T17:30:58.655Z,62.24
2019-02-17T17:33:27.260Z,61.90
2019-02-17T17:35:55.971Z,61.83
2019-02-17T17:38:24.725Z,62.52
2019-02-17T17:40:53.414Z,63.26
2019-02-17T17:43:22.176Z,63.84
2019-02-17T17:45:50.919Z,63.96
2019-02-17T17:48:19.849Z,64.08
2019-02-17T17:50:48.571Z,64.28
2019-02-17T17:53:17.320Z,64.07
2019-02-17T17:55:46.076Z,64.04
2019-02-17T17:58:14.893Z,64.54
2019-02-17T18:00:43.761Z,64.67
2019-02-17T18:03:12.493Z,65.21
2019-02-17T18:05:41.280Z,65.65
2019-02-17T18:08:10.037Z,66.08
2019-02-17T18:10:43.282Z,66.39
2019-02-17T18:13:12.014Z,66.30
2019-02-17T18:15:41.527Z,66.56
2019-02-17T18:18:10.415Z,66.21
2019-02-17T18:20:39.226Z,66.98
2019-02-17T18:23:11.412Z,67.49
2019-02-17T18:25:40.510Z,67.48
2019-02-17T18:28:09.284Z,67.71
2019-02-17T18:30:38.040Z,67.83
2019-02-17T18:33:06.799Z,68.55
2019-02-17T18:35:35.425Z,69.35
2019-02-17T18:38:06.313Z,70.07
2019-02-17T18:40:44.659Z,72.17
2019-02-17T18:43:07.961Z,71.77
2019-02-17T18:45:37.074Z,72.24
2019-02-17T18:48:05.765Z,72.13
2019-02-17T18:50:35.540Z,72.81
2019-02-17T18:53:06.207Z,73.70
2019-02-17T18:55:35.154Z,72.93
2019-02-17T18:58:03.966Z,73.77
2019-02-17T19:00:33.063Z,74.13
2019-02-17T19:03:01.762Z,75.35
2019-02-17T19:05:32.299Z,76.24
2019-02-17T19:08:00.859Z,75.87
2019-02-17T19:10:29.692Z,75.77
2019-02-17T19:12:58.412Z,75.95
2019-02-17T19:15:27.120Z,75.71
2019-02-17T19:17:55.882Z,75.27
2019-02-17T19:20:36.337Z,75.44
2019-02-17T19:23:05.309Z,74.99
2019-02-17T19:25:34.012Z,75.37
2019-02-17T19:28:03.732Z,75.34
2019-02-17T19:30:32.894Z,76.18
2019-02-17T19:33:01.635Z,77.15
2019-02-17T19:35:30.848Z,77.11
2019-02-17T19:37:59.684Z,78.09
2019-02-17T19:40:28.430Z,77.93
2019-02-17T19:42:57.623Z,78.68
2019-02-17T19:45:26.604Z,79.25
2019-02-17T19:47:55.396Z,79.09
2019-02-17T19:50:24.285Z,78.94
2019-02-17T19:52:53.125Z,78.86
2019-02-17T19:55:21.914Z,79.42
2019-02-17T19:57:50.777Z,79.77
2019-02-17T20:00:22.115Z,79.81
2019-02-17T20:03:07.681Z,79.07
2019-02-17T20:05:38.001Z,79.07
2019-02-17T20:08:06.852Z,79.09
2019-02-17T20:10:35.441Z,79.59
2019-02-17T20:13:05.247Z,80.23
2019-02-17T20:15:35.196Z,80.15
2019-02-17T20:18:03.877Z,80.99
2019-02-17T20:20:32.568Z,83.03
2019-02-17T20:23:01.295Z,82.88
2019-02-17T20:25:29.999Z,82.94
2019-02-17T20:27:58.719Z,83.22
2019-02-17T20:30:27.365Z,83.34
2019-02-17T20:32:56.094Z,83.58
2019-02-17T20:35:24.887Z,83.77
2019-02-17T20:37:53.501Z,82.88
2019-02-17T20:40:22.244Z,83.81
2019-02-17T20:42:50.956Z,84.01
2019-02-17T20:45:19.725Z,83.91
2019-02-17T20:47:48.418Z,82.66
2019-02-17T20:50:19.247Z,83.47
2019-02-17T20:52:47.978Z,83.71
2019-02-17T20:55:16.689Z,84.53
2019-02-17T20:57:45.392Z,83.76
2019-02-17T21:00:22.565Z,83.94
2019-02-17T21:03:06.327Z,84.50
2019-02-17T21:05:36.704Z,85.67
2019-02-17T21:08:21.023Z,85.67
2019-02-17T21:10:52.205Z,84.65
2019-02-17T21:13:24.928Z,84.79
2019-02-17T21:15:53.773Z,84.92
2019-02-17T21:18:28.934Z,84.46
2019-02-17T21:21:12.434Z,83.92
2019-02-17T21:23:45.230Z,84.94
2019-02-17T21:26:14.248Z,84.86
2019-02-17T21:28:46.175Z,84.30
2019-02-17T21:31:17.503Z,83.33
2019-02-17T21:33:55.652Z,83.67
2019-02-17T21:36:25.060Z,83.26
2019-02-17T21:38:56.012Z,82.20
2019-02-17T21:41:28.300Z,80.57
2019-02-17T21:43:58.896Z,78.97
2019-02-17T21:46:27.701Z,78.71
2019-02-17T21:48:56.601Z,78.86
2019-02-17T21:51:26.787Z,78.93
2019-02-17T21:53:55.535Z,78.37
2019-02-17T21:56:24.299Z,77.27
2019-02-17T21:58:52.951Z,76.62
2019-02-17T22:01:21.770Z,75.82
2019-02-17T22:03:50.478Z,74.73
2019-02-17T22:06:19.134Z,73.42
2019-02-17T22:08:47.925Z,71.93
2019-02-17T22:11:17.549Z,71.27
2019-02-17T22:13:46.355Z,71.75
2019-02-17T22:16:15.085Z,71.84
2019-02-17T22:18:43.881Z,71.92
2019-02-17T22:21:12.701Z,70.86
2019-02-17T22:23:41.425Z,70.72
2019-02-17T22:26:10.295Z,70.40
2019-02-17T22:28:39.080Z,69.21
2019-02-17T22:31:07.830Z,69.41
2019-02-17T22:33:36.493Z,69.18
2019-02-17T22:36:05.266Z,68.36
2019-02-17T22:38:34.011Z,68.48
2019-02-17T22:41:03.120Z,67.65
2019-02-17T22:43:33.234Z,67.09
2019-02-17T22:46:02.459Z,67.10
2019-02-17T22:48:31.217Z,66.27
2019-02-17T22:50:59.921Z,66.88
2019-02-17T22:53:28.647Z,67.18
2019-02-17T22:55:57.331Z,67.67
2019-02-17T22:58:25.968Z,67.69
2019-02-17T23:00:59.246Z,67.47
2019-02-17T23:03:30.940Z,66.95
2019-02-17T23:05:59.934Z,67.08
2019-02-17T23:08:28.636Z,67.18
2019-02-17T23:10:57.415Z,66.95
2019-02-17T23:13:26.545Z,65.58
2019-02-17T23:15:55.164Z,64.46
2019-02-17T23:18:23.890Z,64.33
2019-02-17T23:20:52.617Z,63.32
2019-02-17T23:23:21.323Z,62.92
2019-02-17T23:25:49.996Z,63.22
2019-02-17T23:28:18.624Z,62.96
2019-02-17T23:30:47.331Z,62.64
2019-02-17T23:33:16.070Z,62.98
2019-02-17T23:35:44.848Z,62.58
2019-02-17T23:38:13.478Z,62.21
2019-02-17T23:40:42.106Z,61.76
2019-02-17T23:43:10.767Z,61.53
2019-02-17T23:45:39.670Z,61.14
2019-02-17T23:48:08.421Z,61.14
2019-02-17T23:50:37.066Z,61.17
2019-02-17T23:53:05.778Z,61.58
2019-02-17T23:55:34.390Z,61.22
2019-02-17T23:58:03.087Z,61.66
